createdAt,value
2022-11-12T00:00:40.058Z,13.25
2022-11-12T00:03:07.131Z,16.63
2022-11-12T00:05:33.943Z,14.00
2022-11-12T00:08:00.874Z,10.35
2022-11-12T00:10:28.011Z,12.85
2022-11-12T00:12:55.201Z,13.25
2022-11-12T00:15:22.153Z,14.43
2022-11-12T00:17:48.958Z,11.80
2022-11-12T00:20:15.758Z,13.25
2022-11-12T00:22:42.546Z,14.95
2022-11-12T00:25:09.422Z,14.40
2022-11-12T00:27:36.322Z,10.23
2022-11-12T00:30:03.526Z,8.20
2022-11-12T00:32:30.520Z,8.73
2022-11-12T00:35:00.273Z,10.57
2022-11-12T00:37:29.329Z,12.10
2022-11-12T00:39:56.145Z,10.90
2022-11-12T00:42:22.869Z,13.95
2022-11-12T00:44:50.051Z,9.70
2022-11-12T00:47:17.324Z,10.40
2022-11-12T00:49:44.138Z,9.48
2022-11-12T00:52:10.915Z,7.82
2022-11-12T00:54:37.708Z,9.93
2022-11-12T00:57:04.660Z,8.95
2022-11-12T00:59:31.440Z,10.45
2022-11-12T01:01:58.238Z,7.95
2022-11-12T01:04:25.107Z,8.50
2022-11-12T01:06:51.925Z,7.57
2022-11-12T01:09:18.734Z,8.80
2022-11-12T01:11:45.517Z,9.90
2022-11-12T01:14:12.365Z,8.25
2022-11-12T01:16:40.249Z,10.13
2022-11-12T01:19:08.337Z,10.93
2022-11-12T01:21:38.295Z,13.75
2022-11-12T01:24:05.246Z,10.52
2022-11-12T01:26:32.025Z,10.40
2022-11-12T01:28:58.764Z,9.88
2022-11-12T01:31:25.549Z,10.23
2022-11-12T01:33:56.350Z,8.10
2022-11-12T01:36:23.510Z,8.20
2022-11-12T01:38:50.619Z,10.70
2022-11-12T01:41:22.492Z,9.35
2022-11-12T01:44:06.590Z,8.30
2022-11-12T01:46:34.549Z,10.10
2022-11-12T01:49:02.671Z,9.45
2022-11-12T01:51:33.860Z,7.25
2022-11-12T01:54:02.880Z,10.52
2022-11-12T01:56:30.646Z,8.27
2022-11-12T01:59:02.768Z,8.45
2022-11-12T02:01:30.228Z,10.13
2022-11-12T02:03:57.468Z,9.43
2022-11-12T02:06:25.005Z,10.88
2022-11-12T02:08:51.947Z,10.00
2022-11-12T02:11:20.178Z,10.05
2022-11-12T02:14:03.527Z,9.27
2022-11-12T02:16:35.267Z,8.15
2022-11-12T02:19:02.365Z,10.90
2022-11-12T02:21:29.844Z,9.20
2022-11-12T02:24:06.807Z,9.68
2022-11-12T02:26:35.805Z,12.10
2022-11-12T02:29:03.186Z,10.38
2022-11-12T02:31:30.045Z,10.85
2022-11-12T02:33:56.887Z,11.23
2022-11-12T02:36:23.917Z,11.35
2022-11-12T02:38:50.834Z,13.25
2022-11-12T02:41:17.781Z,11.95
2022-11-12T02:43:44.741Z,11.27
2022-11-12T02:46:11.875Z,10.45
2022-11-12T02:48:38.670Z,9.80
2022-11-12T02:51:05.749Z,10.30
2022-11-12T02:53:32.621Z,9.68
2022-11-12T02:56:00.349Z,8.75
2022-11-12T02:58:27.549Z,9.23
2022-11-12T03:00:55.684Z,8.85
2022-11-12T03:03:22.541Z,8.20
2022-11-12T03:05:59.785Z,11.30
2022-11-12T03:08:27.122Z,11.30
2022-11-12T03:10:54.154Z,9.48
2022-11-12T03:13:21.348Z,10.15
2022-11-12T03:15:48.196Z,11.45
2022-11-12T03:18:15.369Z,11.60
2022-11-12T03:20:42.174Z,11.98
2022-11-12T03:23:10.229Z,8.75
2022-11-12T03:25:37.320Z,8.80
2022-11-12T03:28:08.419Z,10.02
2022-11-12T03:30:36.693Z,9.73
2022-11-12T03:33:03.719Z,8.18
2022-11-12T03:35:30.569Z,9.43
2022-11-12T03:37:57.376Z,8.55
2022-11-12T03:40:24.314Z,11.13
2022-11-12T03:42:51.928Z,8.07
2022-11-12T03:45:19.677Z,10.68
2022-11-12T03:47:48.012Z,9.38
2022-11-12T03:50:15.669Z,11.25
2022-11-12T03:52:47.171Z,11.68
2022-11-12T03:57:40.920Z,9.73
2022-11-12T04:00:09.245Z,10.27
2022-11-12T04:02:36.243Z,9.70
2022-11-12T04:05:22.474Z,8.27
2022-11-12T04:08:08.436Z,9.05
2022-11-12T04:10:35.646Z,8.50
2022-11-12T04:13:21.124Z,9.55
2022-11-12T04:16:07.966Z,8.55
2022-11-12T04:18:53.578Z,10.93
2022-11-12T04:21:38.791Z,9.10
2022-11-12T04:24:05.769Z,9.20
2022-11-12T04:26:32.498Z,7.82
2022-11-12T04:29:18.031Z,7.97
2022-11-12T04:31:44.832Z,7.80
2022-11-12T04:34:30.167Z,8.20
2022-11-12T04:36:56.953Z,9.77
2022-11-12T04:39:23.759Z,8.02
2022-11-12T04:42:09.253Z,8.52
2022-11-12T04:44:54.864Z,8.70
2022-11-12T04:47:21.694Z,11.40
2022-11-12T04:49:48.466Z,7.53
2022-11-12T04:52:15.415Z,8.88
2022-11-12T04:54:42.312Z,7.82
2022-11-12T04:57:09.090Z,7.50
2022-11-12T04:59:35.854Z,12.15
2022-11-12T05:02:02.685Z,8.95
2022-11-12T05:04:29.485Z,9.77
2022-11-12T05:06:56.841Z,8.85
2022-11-12T05:09:25.118Z,8.52
2022-11-12T05:11:52.378Z,7.57
2022-11-12T05:14:19.209Z,9.07
2022-11-12T05:16:46.132Z,8.13
2022-11-12T05:19:12.931Z,7.55
2022-11-12T05:21:58.409Z,12.43
2022-11-12T05:24:40.973Z,10.73
2022-11-12T05:27:13.335Z,9.20
2022-11-12T05:32:07.639Z,11.35
2022-11-12T05:34:34.437Z,10.68
2022-11-12T05:37:02.227Z,14.23
2022-11-12T05:39:28.993Z,11.77
2022-11-12T05:42:12.432Z,11.77
2022-11-12T05:44:40.579Z,10.43
2022-11-12T05:47:07.547Z,13.23
2022-11-12T05:49:34.338Z,14.48
2022-11-12T05:52:01.083Z,16.00
2022-11-12T05:54:27.978Z,17.00
2022-11-12T05:56:54.788Z,12.85
2022-11-12T05:59:22.251Z,13.57
2022-11-12T06:01:51.223Z,14.63
2022-11-12T06:07:31.359Z,10.15
2022-11-12T06:09:58.094Z,12.50
2022-11-12T06:12:24.912Z,11.55
2022-11-12T06:14:51.729Z,11.30
2022-11-12T06:23:15.426Z,10.73
2022-11-12T06:25:42.378Z,8.75
2022-11-12T06:28:09.318Z,7.55
2022-11-12T06:30:36.142Z,11.30
2022-11-12T06:33:02.920Z,11.32
2022-11-12T06:35:29.694Z,8.25
2022-11-12T06:37:56.505Z,8.57
2022-11-12T06:40:23.255Z,8.65
2022-11-12T06:42:56.005Z,9.18
2022-11-12T06:45:22.890Z,9.45
2022-11-12T06:47:49.672Z,8.85
2022-11-12T06:50:16.471Z,7.88
2022-11-12T06:52:43.396Z,9.38
2022-11-12T06:55:10.206Z,7.93
2022-11-12T06:57:36.997Z,7.40
2022-11-12T07:00:04.257Z,6.32
2022-11-12T07:02:31.085Z,10.10
2022-11-12T07:04:57.857Z,9.15
2022-11-12T07:07:24.680Z,8.52
2022-11-12T07:09:51.512Z,9.55
2022-11-12T07:12:18.287Z,7.72
2022-11-12T07:14:45.610Z,8.10
2022-11-12T07:17:12.358Z,8.15
2022-11-12T07:19:39.119Z,9.93
2022-11-12T07:22:05.877Z,10.48
2022-11-12T07:24:32.673Z,9.18
2022-11-12T07:26:59.444Z,10.82
2022-11-12T07:29:46.404Z,8.65
2022-11-12T07:32:12.880Z,8.85
2022-11-12T07:34:39.732Z,13.80
2022-11-12T07:37:06.551Z,13.93
2022-11-12T07:39:33.310Z,11.93
2022-11-12T07:42:00.447Z,14.23
2022-11-12T07:44:27.309Z,11.45
2022-11-12T07:46:54.178Z,14.63
2022-11-12T07:49:21.030Z,11.75
2022-11-12T07:51:47.892Z,12.18
2022-11-12T07:54:14.645Z,12.90
2022-11-12T07:56:41.391Z,10.95
2022-11-12T07:59:08.275Z,11.75
2022-11-12T08:01:36.301Z,11.48
2022-11-12T08:04:06.831Z,13.38
2022-11-12T08:06:33.821Z,11.68
2022-11-12T08:09:01.591Z,11.85
2022-11-12T08:11:28.387Z,12.50
2022-11-12T08:13:55.222Z,13.50
2022-11-12T08:16:22.051Z,12.00
2022-11-12T08:18:48.849Z,9.05
2022-11-12T08:21:16.454Z,9.88
2022-11-12T08:23:43.240Z,8.88
2022-11-12T08:26:14.219Z,13.80
2022-11-12T08:28:41.574Z,8.85
2022-11-12T08:31:19.115Z,10.15
2022-11-12T08:33:45.878Z,9.93
2022-11-12T08:36:15.041Z,10.45
2022-11-12T08:38:42.263Z,9.60
2022-11-12T08:41:10.185Z,9.95
2022-11-12T08:43:37.407Z,11.77
2022-11-12T08:46:04.774Z,8.80
2022-11-12T08:48:32.125Z,12.20
2022-11-12T08:51:00.730Z,11.18
2022-11-12T08:53:28.601Z,9.90
2022-11-12T08:55:56.336Z,10.55
2022-11-12T08:58:24.144Z,11.60
2022-11-12T09:00:51.510Z,11.85
2022-11-12T09:03:19.739Z,11.48
2022-11-12T09:05:46.534Z,9.68
2022-11-12T09:08:14.338Z,11.45
2022-11-12T09:10:41.589Z,12.35
2022-11-12T09:13:08.425Z,14.48
2022-11-12T09:15:38.044Z,13.48
2022-11-12T09:18:06.788Z,15.63
2022-11-12T09:20:33.603Z,13.98
2022-11-12T09:23:01.986Z,12.98
2022-11-12T09:25:29.171Z,12.10
2022-11-12T09:27:56.256Z,14.35
2022-11-12T09:30:23.305Z,12.50
2022-11-12T09:32:50.122Z,11.90
2022-11-12T09:35:17.009Z,10.98
2022-11-12T09:37:44.157Z,12.10
2022-11-12T09:40:17.539Z,10.95
2022-11-12T09:42:46.876Z,11.50
2022-11-12T09:45:25.022Z,12.68
2022-11-12T09:47:54.585Z,12.73
2022-11-12T09:50:29.638Z,13.77
2022-11-12T09:53:01.443Z,12.93
2022-11-12T09:55:33.863Z,12.18
2022-11-12T09:58:01.027Z,12.50
2022-11-12T10:00:28.820Z,11.40
2022-11-12T10:03:00.621Z,14.43
2022-11-12T10:05:27.436Z,11.68
2022-11-12T10:08:00.210Z,12.25
2022-11-12T10:10:49.586Z,13.02
2022-11-12T10:13:19.474Z,14.18
2022-11-12T10:16:04.670Z,14.23
2022-11-12T10:18:50.826Z,15.02
2022-11-12T10:21:41.274Z,13.00
2022-11-12T10:24:10.244Z,13.68
2022-11-12T10:26:40.226Z,15.30
2022-11-12T10:29:36.547Z,16.85
2022-11-12T10:32:03.523Z,16.10
2022-11-12T10:34:34.112Z,16.50
2022-11-12T10:37:02.612Z,16.42
2022-11-12T10:39:34.113Z,14.52
2022-11-12T10:42:05.328Z,14.90
2022-11-12T10:44:32.170Z,14.68
2022-11-12T10:47:17.787Z,15.43
2022-11-12T10:49:44.891Z,14.18
2022-11-12T10:52:21.740Z,15.65
2022-11-12T10:54:53.906Z,16.23
2022-11-12T10:57:23.865Z,16.88
2022-11-12T11:00:09.701Z,14.00
2022-11-12T11:02:36.552Z,14.25
2022-11-12T11:05:22.304Z,12.20
2022-11-12T11:07:49.788Z,13.32
2022-11-12T11:10:30.212Z,14.15
2022-11-12T11:13:19.442Z,13.40
2022-11-12T11:16:02.363Z,12.55
2022-11-12T11:18:30.394Z,11.75
2022-11-12T11:21:08.657Z,12.70
2022-11-12T11:23:47.517Z,10.07
2022-11-12T11:26:20.358Z,11.30
2022-11-12T11:28:52.290Z,11.13
2022-11-12T11:31:21.983Z,10.63
2022-11-12T11:33:53.884Z,11.23
2022-11-12T11:36:20.647Z,8.98
2022-11-12T11:39:23.517Z,9.93
2022-11-12T11:41:54.851Z,10.23
2022-11-12T11:46:55.052Z,11.05
2022-11-12T11:49:21.768Z,10.93
2022-11-12T11:51:48.603Z,10.35
2022-11-12T11:54:33.930Z,9.88
2022-11-12T11:57:02.463Z,9.10
2022-11-12T11:59:48.167Z,9.20
2022-11-12T12:02:33.680Z,8.77
2022-11-12T12:05:00.436Z,8.68
2022-11-12T12:07:36.380Z,7.18
2022-11-12T12:10:09.332Z,7.90
2022-11-12T12:12:43.050Z,9.88
2022-11-12T12:15:28.617Z,7.95
2022-11-12T12:18:07.895Z,7.65
2022-11-12T12:20:48.593Z,7.47
2022-11-12T12:23:15.392Z,8.52
2022-11-12T12:25:44.029Z,8.73
2022-11-12T12:28:22.016Z,8.43
2022-11-12T12:30:50.913Z,9.45
2022-11-12T12:33:24.766Z,7.55
2022-11-12T12:35:58.069Z,6.40
2022-11-12T12:38:43.678Z,7.25
2022-11-12T12:41:13.493Z,8.73
2022-11-12T12:43:40.328Z,8.25
2022-11-12T12:46:09.594Z,8.32
2022-11-12T12:48:38.693Z,7.80
2022-11-12T12:51:05.486Z,7.72
2022-11-12T12:53:34.011Z,6.90
2022-11-12T12:56:04.684Z,9.82
2022-11-12T12:58:40.641Z,5.85
2022-11-12T13:01:22.671Z,9.02
2022-11-12T13:04:00.224Z,5.88
2022-11-12T13:06:29.508Z,9.98
2022-11-12T13:08:56.225Z,6.65
2022-11-12T13:11:58.342Z,6.00
2022-11-12T13:14:31.243Z,7.60
2022-11-12T13:16:58.052Z,5.30
2022-11-12T13:19:28.754Z,7.60
2022-11-12T13:22:14.157Z,6.63
2022-11-12T13:24:59.561Z,5.90
2022-11-12T13:27:44.673Z,7.88
2022-11-12T13:30:14.456Z,7.32
2022-11-12T13:32:42.505Z,5.57
2022-11-12T13:35:21.709Z,6.18
2022-11-12T13:37:54.495Z,4.72
2022-11-12T13:40:30.398Z,5.85
2022-11-12T13:42:59.061Z,6.47
2022-11-12T13:45:27.213Z,6.55
2022-11-12T13:47:54.618Z,5.82
2022-11-12T13:50:23.210Z,4.97
2022-11-12T13:52:50.097Z,6.30
2022-11-12T13:55:20.659Z,6.03
2022-11-12T13:57:51.334Z,5.15
2022-11-12T14:00:18.100Z,4.60
2022-11-12T14:02:46.365Z,5.20
2022-11-12T14:05:14.621Z,5.43
2022-11-12T14:07:53.931Z,5.78
2022-11-12T14:10:29.737Z,6.40
2022-11-12T14:13:05.425Z,6.28
2022-11-12T14:15:32.202Z,4.65
2022-11-12T14:18:05.199Z,5.90
2022-11-12T14:20:39.002Z,4.18
2022-11-12T14:23:21.575Z,5.82
2022-11-12T14:25:55.128Z,5.25
2022-11-12T14:28:40.259Z,5.72
2022-11-12T14:31:12.541Z,5.50
2022-11-12T14:33:39.370Z,4.70
2022-11-12T14:36:08.166Z,4.43
2022-11-12T14:38:39.461Z,4.13
2022-11-12T14:41:11.007Z,4.32
2022-11-12T14:43:38.873Z,7.28
2022-11-12T14:46:06.738Z,4.15
2022-11-12T14:48:37.181Z,4.60
2022-11-12T14:51:05.939Z,5.07
2022-11-12T14:53:34.494Z,5.90
2022-11-12T14:56:03.527Z,4.97
2022-11-12T14:58:30.815Z,5.38
2022-11-12T15:00:57.602Z,4.78
2022-11-12T15:03:26.081Z,4.45
2022-11-12T15:05:56.093Z,5.97
2022-11-12T15:08:33.708Z,4.78
2022-11-12T15:11:21.936Z,5.03
2022-11-12T15:13:49.856Z,6.43
2022-11-12T15:16:19.973Z,8.00
2022-11-12T15:19:03.485Z,5.28
2022-11-12T15:21:30.364Z,4.93
2022-11-12T15:24:15.913Z,4.95
2022-11-12T15:26:44.218Z,5.95
2022-11-12T15:29:10.947Z,7.30
2022-11-12T15:31:45.679Z,6.90
2022-11-12T15:34:25.720Z,6.18
2022-11-12T15:36:52.977Z,5.80
2022-11-12T15:39:19.909Z,4.97
2022-11-12T15:41:46.752Z,6.40
2022-11-12T15:44:13.606Z,6.47
2022-11-12T15:46:40.482Z,5.55
2022-11-12T15:49:11.650Z,4.85
2022-11-12T15:51:38.404Z,6.15
2022-11-12T15:54:05.178Z,4.78
2022-11-12T15:56:31.940Z,4.97
2022-11-12T15:58:58.749Z,5.97
2022-11-12T16:01:25.565Z,8.20
2022-11-12T16:03:52.316Z,5.57
2022-11-12T16:06:19.071Z,7.55
2022-11-12T16:08:46.447Z,8.30
2022-11-12T16:11:33.446Z,7.53
2022-11-12T16:14:00.222Z,6.35
2022-11-12T16:16:27.031Z,7.65
2022-11-12T16:18:53.859Z,8.48
2022-11-12T16:21:21.134Z,6.90
2022-11-12T16:23:48.108Z,7.40
2022-11-12T16:26:15.758Z,6.00
2022-11-12T16:28:43.833Z,7.85
2022-11-12T16:31:10.662Z,6.47
2022-11-12T16:33:37.450Z,5.97
2022-11-12T16:36:11.699Z,7.43
2022-11-12T16:38:38.874Z,7.07
2022-11-12T16:41:05.799Z,6.18
2022-11-12T16:43:32.543Z,6.40
2022-11-12T16:45:59.747Z,6.85
2022-11-12T16:48:26.601Z,5.78
2022-11-12T16:50:53.371Z,6.63
2022-11-12T16:53:20.139Z,7.25
2022-11-12T16:55:46.878Z,8.10
2022-11-12T16:58:14.633Z,7.53
2022-11-12T17:00:43.908Z,7.05
2022-11-12T17:03:11.651Z,10.05
2022-11-12T17:05:38.432Z,12.07
2022-11-12T17:08:05.254Z,11.77
2022-11-12T17:10:32.047Z,9.32
2022-11-12T17:12:58.790Z,11.65
2022-11-12T17:15:25.567Z,11.60
2022-11-12T17:17:55.386Z,10.23
2022-11-12T17:20:22.188Z,10.18
2022-11-12T17:22:48.945Z,11.52
2022-11-12T17:25:15.801Z,11.32
2022-11-12T17:27:42.553Z,12.27
2022-11-12T17:30:11.335Z,9.60
2022-11-12T17:32:38.106Z,10.30
2022-11-12T17:35:05.094Z,9.30
2022-11-12T17:37:31.920Z,7.78
2022-11-12T17:39:58.724Z,9.18
2022-11-12T17:42:25.474Z,7.47
2022-11-12T17:44:52.260Z,9.30
2022-11-12T17:47:19.021Z,7.25
2022-11-12T17:49:45.786Z,8.35
2022-11-12T17:52:12.589Z,7.38
2022-11-12T17:54:39.360Z,8.38
2022-11-12T17:57:06.127Z,7.45
2022-11-12T17:59:32.922Z,9.27
2022-11-12T18:01:59.688Z,8.25
2022-11-12T18:04:30.621Z,8.05
2022-11-12T18:07:00.502Z,9.25
2022-11-12T18:09:27.329Z,16.17
2022-11-12T18:11:54.866Z,12.30
2022-11-12T18:14:23.165Z,15.80
2022-11-12T18:16:49.942Z,14.20
2022-11-12T18:19:16.727Z,12.80
2022-11-12T18:21:46.209Z,12.32
2022-11-12T18:24:14.396Z,11.27
2022-11-12T18:26:41.228Z,13.93
2022-11-12T18:29:08.041Z,15.18
2022-11-12T18:31:34.822Z,13.95
2022-11-12T18:34:01.671Z,13.82
2022-11-12T18:36:29.144Z,15.93
2022-11-12T18:38:55.922Z,18.30
2022-11-12T18:41:28.060Z,15.40
2022-11-12T18:43:55.271Z,18.33
2022-11-12T18:46:22.263Z,18.08
2022-11-12T18:48:49.216Z,16.35
2022-11-12T18:51:17.327Z,17.67
2022-11-12T18:53:45.672Z,15.30
2022-11-12T18:56:14.025Z,14.82
2022-11-12T18:58:40.956Z,14.55
2022-11-12T19:01:10.296Z,14.10
2022-11-12T19:03:37.191Z,15.55
2022-11-12T19:06:05.070Z,15.88
2022-11-12T19:08:32.045Z,20.25
2022-11-12T19:11:03.175Z,16.17
2022-11-12T19:13:30.282Z,18.63
2022-11-12T19:16:03.069Z,17.03
2022-11-12T19:18:30.000Z,18.75
2022-11-12T19:21:01.460Z,16.52
2022-11-12T19:23:28.641Z,18.35
2022-11-12T19:25:55.727Z,17.55
2022-11-12T19:28:22.546Z,20.05
2022-11-12T19:30:49.316Z,27.33
2022-11-12T19:33:16.240Z,19.88
2022-11-12T19:35:43.083Z,24.85
2022-11-12T19:38:10.440Z,28.42
2022-11-12T19:40:37.253Z,28.85
2022-11-12T19:43:04.104Z,28.83
2022-11-12T19:45:30.864Z,27.20
2022-11-12T19:47:57.635Z,30.45
2022-11-12T19:50:26.973Z,35.78
2022-11-12T19:52:56.481Z,45.45
2022-11-12T19:55:25.682Z,40.97
2022-11-12T19:57:52.730Z,49.00
2022-11-12T20:00:19.533Z,47.70
2022-11-12T20:02:46.333Z,47.95
2022-11-12T20:05:13.378Z,46.08
2022-11-12T20:07:40.457Z,44.60
2022-11-12T20:10:07.366Z,44.17
2022-11-12T20:12:34.495Z,40.60
2022-11-12T20:15:01.349Z,39.40
2022-11-12T20:17:28.190Z,38.75
2022-11-12T20:19:54.945Z,31.48
2022-11-12T20:22:21.725Z,26.42
2022-11-12T20:24:48.538Z,24.20
2022-11-12T20:27:15.948Z,27.70
2022-11-12T20:29:42.706Z,27.23
2022-11-12T20:32:09.567Z,27.10
2022-11-12T20:34:36.416Z,31.05
2022-11-12T20:37:03.167Z,32.50
2022-11-12T20:39:30.050Z,31.70
2022-11-12T20:41:56.889Z,35.67
2022-11-12T20:44:23.712Z,34.47
2022-11-12T20:46:50.528Z,34.85
2022-11-12T20:49:17.349Z,36.60
2022-11-12T20:51:44.121Z,34.35
2022-11-12T20:54:10.979Z,33.20
2022-11-12T20:56:37.837Z,33.78
2022-11-12T20:59:04.573Z,30.83
2022-11-12T21:01:31.689Z,34.03
2022-11-12T21:03:58.937Z,31.75
2022-11-12T21:06:26.948Z,31.55
2022-11-12T21:08:53.734Z,34.58
2022-11-12T21:11:21.467Z,33.78
2022-11-12T21:13:48.297Z,31.70
2022-11-12T21:16:15.103Z,33.50
2022-11-12T21:18:42.247Z,33.60
2022-11-12T21:21:10.898Z,34.83
2022-11-12T21:23:39.385Z,33.65
2022-11-12T21:26:07.334Z,39.45
2022-11-12T21:28:38.453Z,40.90
2022-11-12T21:31:06.447Z,39.45
2022-11-12T21:33:33.267Z,39.88
2022-11-12T21:36:00.133Z,45.63
2022-11-12T21:38:30.170Z,46.38
2022-11-12T21:41:04.743Z,43.55
2022-11-12T21:43:31.840Z,69.32
2022-11-12T21:45:58.703Z,55.45
2022-11-12T21:48:25.711Z,52.03
2022-11-12T21:50:53.856Z,60.15
2022-11-12T21:53:20.661Z,63.92
2022-11-12T21:55:47.421Z,58.50
2022-11-12T21:58:14.200Z,59.35
2022-11-12T22:00:42.546Z,55.50
2022-11-12T22:03:09.787Z,48.63
2022-11-12T22:05:37.385Z,48.75
2022-11-12T22:08:04.355Z,44.75
2022-11-12T22:10:31.673Z,47.95
2022-11-12T22:13:25.361Z,44.75
2022-11-12T22:15:49.079Z,39.10
2022-11-12T22:18:15.851Z,39.10
2022-11-12T22:20:44.417Z,70.80
2022-11-12T22:23:11.157Z,39.97
2022-11-12T22:25:38.017Z,39.90
2022-11-12T22:28:04.861Z,39.67
2022-11-12T22:30:31.647Z,41.20
2022-11-12T22:32:58.423Z,36.60
2022-11-12T22:35:25.192Z,35.10
2022-11-12T22:37:51.934Z,36.10
2022-11-12T22:40:18.755Z,41.05
2022-11-12T22:42:45.539Z,35.95
2022-11-12T22:45:12.401Z,36.88
2022-11-12T22:47:39.257Z,35.38
2022-11-12T22:50:06.317Z,35.45
2022-11-12T22:52:33.078Z,32.38
2022-11-12T22:54:59.828Z,35.88
2022-11-12T22:57:26.687Z,33.88
2022-11-12T22:59:53.542Z,31.63
2022-11-12T23:02:20.320Z,33.75
2022-11-12T23:04:47.062Z,31.17
2022-11-12T23:07:13.861Z,30.45
2022-11-12T23:09:40.708Z,30.48
2022-11-12T23:12:07.568Z,32.55
2022-11-12T23:14:34.631Z,27.92
2022-11-12T23:17:01.810Z,26.77
2022-11-12T23:19:28.629Z,28.90
2022-11-12T23:21:55.428Z,30.25
2022-11-12T23:24:22.241Z,32.00
2022-11-12T23:26:49.002Z,46.88
2022-11-12T23:29:15.799Z,40.20
2022-11-12T23:31:42.573Z,44.83
2022-11-12T23:34:09.564Z,38.20
2022-11-12T23:36:36.334Z,49.45
2022-11-12T23:39:03.102Z,50.17
2022-11-12T23:41:29.882Z,42.88
2022-11-12T23:43:57.518Z,44.92
2022-11-12T23:46:24.530Z,41.63
2022-11-12T23:48:51.369Z,42.95
2022-11-12T23:51:19.296Z,55.88
2022-11-12T23:53:46.547Z,112.65
2022-11-12T23:56:15.099Z,74.28
2022-11-12T23:58:42.263Z,51.40
